createdAt,value
2022-08-29T00:00:49.624Z,12.77
2022-08-29T00:03:18.406Z,18.13
2022-08-29T00:05:46.610Z,20.73
2022-08-29T00:08:18.030Z,19.60
2022-08-29T00:10:45.328Z,15.75
2022-08-29T00:13:13.935Z,21.85
2022-08-29T00:15:45.011Z,12.63
2022-08-29T00:18:15.097Z,15.98
2022-08-29T00:20:42.521Z,14.15
2022-08-29T00:23:10.273Z,16.10
2022-08-29T00:25:39.423Z,14.30
2022-08-29T00:28:07.244Z,17.23
2022-08-29T00:30:35.528Z,16.17
2022-08-29T00:33:03.235Z,17.20
2022-08-29T00:35:34.088Z,14.95
2022-08-29T00:38:03.270Z,14.07
2022-08-29T00:40:39.926Z,16.58
2022-08-29T00:43:07.590Z,16.08
2022-08-29T00:45:36.647Z,21.92
2022-08-29T00:48:15.934Z,18.67
2022-08-29T00:50:49.571Z,18.67
2022-08-29T00:53:18.563Z,19.48
2022-08-29T00:55:50.255Z,18.00
2022-08-29T00:58:42.021Z,14.27
2022-08-29T01:01:09.046Z,13.80
2022-08-29T01:03:41.048Z,13.98
2022-08-29T01:06:11.333Z,15.38
2022-08-29T01:08:38.125Z,15.07
2022-08-29T01:11:24.102Z,17.35
2022-08-29T01:13:51.774Z,15.80
2022-08-29T01:16:20.704Z,14.90
2022-08-29T01:18:50.957Z,14.18
2022-08-29T01:21:36.514Z,17.30
2022-08-29T01:24:15.540Z,11.55
2022-08-29T01:26:47.302Z,12.23
2022-08-29T01:29:15.539Z,15.05
2022-08-29T01:31:56.985Z,12.90
2022-08-29T01:34:26.642Z,11.85
2022-08-29T01:36:59.371Z,11.00
2022-08-29T01:39:32.392Z,9.52
2022-08-29T01:42:02.555Z,10.68
2022-08-29T01:44:30.714Z,10.65
2022-08-29T01:47:02.720Z,8.77
2022-08-29T01:49:32.279Z,11.32
2022-08-29T01:51:59.733Z,10.07
2022-08-29T01:54:26.798Z,9.27
2022-08-29T01:56:56.451Z,10.98
2022-08-29T01:59:27.185Z,10.65
2022-08-29T02:02:04.267Z,9.25
2022-08-29T02:04:31.904Z,7.78
2022-08-29T02:06:58.982Z,8.98
2022-08-29T02:09:27.416Z,7.28
2022-08-29T02:11:56.191Z,7.85
2022-08-29T02:14:23.647Z,7.85
2022-08-29T02:16:50.994Z,7.65
2022-08-29T02:19:18.238Z,6.97
2022-08-29T02:21:45.227Z,8.70
2022-08-29T02:24:24.915Z,8.63
2022-08-29T02:26:54.693Z,7.70
2022-08-29T02:29:21.764Z,6.97
2022-08-29T02:31:49.107Z,7.07
2022-08-29T02:34:16.687Z,5.70
2022-08-29T02:36:44.002Z,6.50
2022-08-29T02:39:12.407Z,9.80
2022-08-29T02:41:39.472Z,8.85
2022-08-29T02:44:09.156Z,8.23
2022-08-29T02:46:37.030Z,9.63
2022-08-29T02:49:04.144Z,9.02
2022-08-29T02:51:32.602Z,10.88
2022-08-29T02:53:59.937Z,9.23
2022-08-29T02:56:27.720Z,7.75
2022-08-29T02:58:54.558Z,7.88
2022-08-29T03:01:23.993Z,7.95
2022-08-29T03:03:52.533Z,8.55
2022-08-29T03:06:20.999Z,4.82
2022-08-29T03:08:47.942Z,7.35
2022-08-29T03:11:16.052Z,5.57
2022-08-29T03:13:44.496Z,6.18
2022-08-29T03:16:12.496Z,3.13
2022-08-29T03:18:39.599Z,4.70
2022-08-29T03:21:14.862Z,5.18
2022-08-29T03:23:41.674Z,4.15
2022-08-29T03:26:08.367Z,4.07
2022-08-29T03:28:35.126Z,7.00
2022-08-29T03:31:02.029Z,3.90
2022-08-29T03:33:28.790Z,4.53
2022-08-29T03:35:55.441Z,3.78
2022-08-29T03:38:22.748Z,3.78
2022-08-29T03:40:49.586Z,3.95
2022-08-29T03:43:16.368Z,3.17
2022-08-29T03:45:43.177Z,4.95
2022-08-29T03:48:10.184Z,4.05
2022-08-29T03:50:36.871Z,4.40
2022-08-29T03:53:03.841Z,6.40
2022-08-29T03:55:30.586Z,5.82
2022-08-29T03:57:57.508Z,8.32
2022-08-29T04:00:24.809Z,4.80
2022-08-29T04:02:53.892Z,5.88
2022-08-29T04:05:21.117Z,6.38
2022-08-29T04:07:55.541Z,2.55
2022-08-29T04:10:34.593Z,3.97
2022-08-29T04:13:02.335Z,3.05
2022-08-29T04:15:30.542Z,5.63
2022-08-29T04:17:59.991Z,2.75
2022-08-29T04:20:32.883Z,2.53
2022-08-29T04:22:59.871Z,7.07
2022-08-29T04:25:28.668Z,6.00
2022-08-29T04:27:56.289Z,4.43
2022-08-29T04:30:25.261Z,4.80
2022-08-29T04:32:52.151Z,8.20
2022-08-29T04:35:19.533Z,3.20
2022-08-29T04:37:46.360Z,3.08
2022-08-29T04:40:17.562Z,2.95
2022-08-29T04:45:15.319Z,3.95
2022-08-29T04:47:42.764Z,4.28
2022-08-29T04:50:12.672Z,5.28
2022-08-29T04:52:40.614Z,4.78
2022-08-29T04:55:09.113Z,4.63
2022-08-29T04:57:38.179Z,4.90
2022-08-29T05:00:11.758Z,6.80
2022-08-29T05:02:40.046Z,7.82
2022-08-29T05:05:08.273Z,3.30
2022-08-29T05:07:35.322Z,4.47
2022-08-29T05:10:09.368Z,3.20
2022-08-29T05:12:37.630Z,3.42
2022-08-29T05:15:06.398Z,4.13
2022-08-29T05:17:33.739Z,2.85
2022-08-29T05:20:01.029Z,2.30
2022-08-29T05:22:27.935Z,2.15
2022-08-29T05:24:57.056Z,3.53
2022-08-29T05:27:24.114Z,2.30
2022-08-29T05:29:51.939Z,4.60
2022-08-29T05:32:19.638Z,2.83
2022-08-29T05:34:47.512Z,2.58
2022-08-29T05:37:19.264Z,5.07
2022-08-29T05:39:47.488Z,3.72
2022-08-29T05:42:16.999Z,2.20
2022-08-29T05:44:44.418Z,1.88
2022-08-29T05:47:13.411Z,4.32
2022-08-29T05:49:41.982Z,2.47
2022-08-29T05:52:09.453Z,4.78
2022-08-29T05:54:39.622Z,2.70
2022-08-29T05:57:07.268Z,3.25
2022-08-29T05:59:35.334Z,5.30
2022-08-29T06:02:02.495Z,3.03
2022-08-29T06:04:29.454Z,2.10
2022-08-29T06:06:56.243Z,3.05
2022-08-29T06:09:23.056Z,4.68
2022-08-29T06:11:51.788Z,4.15
2022-08-29T06:14:19.760Z,4.70
2022-08-29T06:16:46.614Z,3.13
2022-08-29T06:19:13.746Z,2.33
2022-08-29T06:21:40.533Z,4.25
2022-08-29T06:24:07.779Z,2.65
2022-08-29T06:26:34.903Z,4.10
2022-08-29T06:29:06.360Z,3.72
2022-08-29T06:31:33.525Z,2.53
2022-08-29T06:34:02.988Z,5.57
2022-08-29T06:36:30.193Z,4.38
2022-08-29T06:39:02.372Z,3.63
2022-08-29T06:41:29.973Z,2.42
2022-08-29T06:43:57.216Z,1.95
2022-08-29T06:46:30.736Z,3.42
2022-08-29T06:48:58.886Z,1.38
2022-08-29T06:51:26.787Z,1.17
2022-08-29T06:53:53.712Z,2.15
2022-08-29T06:56:20.553Z,1.40
2022-08-29T06:58:47.384Z,1.80
2022-08-29T07:01:16.813Z,1.90
2022-08-29T07:03:43.814Z,2.20
2022-08-29T07:06:10.930Z,2.80
2022-08-29T07:08:43.676Z,3.67
2022-08-29T07:11:22.539Z,1.98
2022-08-29T07:13:49.356Z,1.10
2022-08-29T07:16:18.698Z,0.95
2022-08-29T07:18:46.851Z,2.55
2022-08-29T07:21:20.346Z,1.63
2022-08-29T07:23:48.930Z,2.85
2022-08-29T07:26:30.863Z,0.88
2022-08-29T07:29:03.263Z,1.08
2022-08-29T07:31:31.417Z,2.30
2022-08-29T07:34:02.914Z,1.60
2022-08-29T07:36:34.210Z,2.67
2022-08-29T07:39:04.823Z,1.40
2022-08-29T07:41:31.746Z,1.70
2022-08-29T07:43:58.555Z,1.25
2022-08-29T07:46:26.912Z,2.95
2022-08-29T07:48:53.866Z,2.65
2022-08-29T07:51:23.112Z,2.80
2022-08-29T07:53:51.298Z,2.00
2022-08-29T07:56:25.634Z,1.58
2022-08-29T07:58:54.042Z,2.22
2022-08-29T08:01:21.937Z,1.92
2022-08-29T08:03:50.862Z,1.20
2022-08-29T08:06:19.821Z,3.25
2022-08-29T08:08:47.742Z,1.23
2022-08-29T08:11:14.807Z,2.67
2022-08-29T08:13:41.862Z,2.67
2022-08-29T08:16:12.132Z,2.47
2022-08-29T08:18:40.110Z,1.08
2022-08-29T08:21:07.228Z,2.75
2022-08-29T08:23:34.429Z,2.03
2022-08-29T08:26:01.829Z,3.58
2022-08-29T08:28:30.480Z,2.05
2022-08-29T08:31:03.597Z,2.10
2022-08-29T08:33:34.970Z,2.92
2022-08-29T08:36:03.209Z,1.40
2022-08-29T08:38:31.105Z,1.38
2022-08-29T08:41:07.048Z,2.78
2022-08-29T08:43:51.874Z,1.25
2022-08-29T08:46:36.359Z,3.60
2022-08-29T08:49:09.032Z,1.15
2022-08-29T08:51:40.356Z,1.20
2022-08-29T08:54:16.247Z,1.63
2022-08-29T08:56:46.806Z,2.40
2022-08-29T08:59:22.784Z,1.48
2022-08-29T09:02:27.560Z,1.15
2022-08-29T09:04:57.877Z,1.75
2022-08-29T09:07:46.591Z,0.40
2022-08-29T09:10:40.842Z,1.08
2022-08-29T09:13:41.547Z,0.70
2022-08-29T09:16:19.793Z,0.65
2022-08-29T09:18:53.932Z,2.20
2022-08-29T09:24:24.174Z,2.47
2022-08-29T09:26:50.904Z,2.15
2022-08-29T09:29:21.204Z,1.58
2022-08-29T09:32:09.097Z,1.17
2022-08-29T09:35:07.368Z,1.13
2022-08-29T09:37:32.700Z,1.42
2022-08-29T09:40:16.567Z,2.15
2022-08-29T09:42:59.768Z,1.10
2022-08-29T09:45:27.258Z,1.67
2022-08-29T09:48:15.769Z,1.75
2022-08-29T09:50:42.919Z,1.00
2022-08-29T09:53:11.664Z,0.55
2022-08-29T09:55:52.408Z,2.35
2022-08-29T09:58:22.368Z,2.90
2022-08-29T10:01:10.376Z,2.22
2022-08-29T10:03:51.820Z,2.22
2022-08-29T10:06:24.587Z,1.73
2022-08-29T10:09:23.943Z,1.15
2022-08-29T10:11:57.190Z,1.98
2022-08-29T10:14:30.691Z,0.70
2022-08-29T10:17:22.589Z,1.33
2022-08-29T10:19:50.673Z,1.90
2022-08-29T10:22:33.264Z,0.82
2022-08-29T10:25:13.555Z,0.75
2022-08-29T10:28:09.802Z,2.65
2022-08-29T10:30:57.069Z,2.08
2022-08-29T10:33:54.905Z,0.63
2022-08-29T10:36:29.627Z,0.68
2022-08-29T10:39:02.450Z,1.70
2022-08-29T10:41:50.374Z,1.55
2022-08-29T10:44:32.626Z,2.00
2022-08-29T10:47:19.569Z,0.82
2022-08-29T10:50:12.868Z,1.25
2022-08-29T10:53:11.775Z,2.10
2022-08-29T10:55:55.105Z,2.88
2022-08-29T10:58:49.563Z,1.60
2022-08-29T11:01:29.607Z,1.02
2022-08-29T11:04:23.770Z,1.15
2022-08-29T11:07:11.117Z,1.33
2022-08-29T11:10:02.647Z,3.03
2022-08-29T11:12:47.596Z,1.58
2022-08-29T11:15:26.374Z,0.80
2022-08-29T11:18:22.320Z,0.70
2022-08-29T11:20:56.596Z,1.05
2022-08-29T11:23:46.822Z,1.60
2022-08-29T11:26:22.627Z,1.50
2022-08-29T11:29:04.600Z,0.80
2022-08-29T11:31:40.458Z,1.17
2022-08-29T11:34:44.876Z,2.45
2022-08-29T11:37:29.779Z,1.60
2022-08-29T11:40:02.803Z,0.50
2022-08-29T11:42:50.663Z,0.80
2022-08-29T11:45:29.672Z,2.20
2022-08-29T11:48:22.284Z,1.30
2022-08-29T11:50:49.445Z,1.20
2022-08-29T11:53:35.879Z,1.80
2022-08-29T11:56:15.644Z,1.35
2022-08-29T11:58:46.230Z,1.80
2022-08-29T12:01:35.862Z,1.83
2022-08-29T12:04:05.227Z,1.63
2022-08-29T12:06:50.787Z,2.45
2022-08-29T12:09:26.988Z,1.65
2022-08-29T12:12:12.691Z,1.60
2022-08-29T12:14:47.244Z,2.13
2022-08-29T12:17:17.029Z,2.05
2022-08-29T12:19:56.224Z,2.10
2022-08-29T12:22:47.890Z,1.85
2022-08-29T12:25:33.633Z,2.03
2022-08-29T12:28:20.479Z,2.53
2022-08-29T12:30:57.615Z,2.63
2022-08-29T12:33:48.379Z,2.65
2022-08-29T12:36:32.060Z,2.25
2022-08-29T12:39:27.153Z,2.53
2022-08-29T12:42:34.480Z,2.38
2022-08-29T12:45:17.500Z,2.85
2022-08-29T12:47:49.188Z,2.17
2022-08-29T12:50:26.791Z,2.65
2022-08-29T12:53:16.261Z,2.70
2022-08-29T12:55:46.377Z,2.53
2022-08-29T12:58:35.138Z,2.33
2022-08-29T13:01:04.981Z,2.42
2022-08-29T13:03:32.048Z,2.33
2022-08-29T13:06:08.814Z,3.25
2022-08-29T13:08:37.247Z,2.45
2022-08-29T13:11:10.316Z,2.03
2022-08-29T13:13:38.399Z,2.25
2022-08-29T13:16:08.674Z,2.03
2022-08-29T13:18:49.125Z,2.65
2022-08-29T13:21:31.945Z,2.72
2022-08-29T13:24:10.676Z,1.90
2022-08-29T13:26:43.035Z,2.83
2022-08-29T13:29:32.658Z,1.83
2022-08-29T13:32:24.207Z,2.53
2022-08-29T13:35:03.016Z,1.95
2022-08-29T13:37:36.563Z,2.28
2022-08-29T13:40:58.826Z,1.75
2022-08-29T13:43:30.613Z,2.00
2022-08-29T13:46:27.222Z,3.75
2022-08-29T13:49:02.971Z,2.78
2022-08-29T13:51:29.664Z,1.92
2022-08-29T13:53:56.859Z,2.97
2022-08-29T13:56:32.662Z,2.50
2022-08-29T13:59:00.150Z,7.03
2022-08-29T14:01:30.820Z,2.25
2022-08-29T14:04:36.895Z,3.75
2022-08-29T14:07:01.362Z,2.35
2022-08-29T14:09:35.454Z,3.53
2022-08-29T14:12:03.060Z,2.70
2022-08-29T14:14:29.894Z,4.05
2022-08-29T14:16:57.213Z,2.85
2022-08-29T14:19:24.919Z,2.63
2022-08-29T14:21:51.729Z,3.15
2022-08-29T14:24:18.455Z,3.97
2022-08-29T14:26:45.306Z,2.55
2022-08-29T14:29:12.206Z,3.08
2022-08-29T14:31:38.977Z,2.05
2022-08-29T14:34:06.009Z,3.05
2022-08-29T14:36:33.643Z,3.17
2022-08-29T14:39:01.305Z,3.85
2022-08-29T14:41:28.030Z,2.22
2022-08-29T14:43:54.817Z,1.70
2022-08-29T14:46:21.867Z,2.45
2022-08-29T14:48:48.706Z,2.88
2022-08-29T14:51:15.620Z,4.63
2022-08-29T14:53:53.895Z,2.78
2022-08-29T14:56:47.608Z,3.78
2022-08-29T14:59:17.043Z,2.17
2022-08-29T15:01:44.075Z,8.07
2022-08-29T15:04:11.141Z,2.30
2022-08-29T15:06:40.144Z,5.25
2022-08-29T15:09:14.244Z,2.65
2022-08-29T15:11:41.059Z,3.03
2022-08-29T15:14:08.929Z,3.47
2022-08-29T15:16:36.748Z,2.47
2022-08-29T15:21:52.340Z,3.30
2022-08-29T15:24:19.110Z,2.50
2022-08-29T15:26:45.983Z,3.20
2022-08-29T15:29:13.100Z,4.05
2022-08-29T15:31:40.185Z,4.40
2022-08-29T15:34:07.421Z,5.55
2022-08-29T15:36:35.964Z,4.22
2022-08-29T15:39:05.712Z,2.60
2022-08-29T15:41:33.710Z,3.15
2022-08-29T15:44:03.634Z,3.25
2022-08-29T15:46:30.394Z,3.67
2022-08-29T15:48:57.543Z,3.45
2022-08-29T15:51:24.292Z,2.90
2022-08-29T15:53:51.346Z,3.08
2022-08-29T15:56:18.220Z,2.83
2022-08-29T15:58:45.504Z,3.63
2022-08-29T16:01:12.282Z,2.83
2022-08-29T16:03:39.251Z,3.40
2022-08-29T16:06:06.299Z,4.38
2022-08-29T16:08:33.131Z,5.32
2022-08-29T16:11:00.886Z,4.10
2022-08-29T16:13:27.738Z,3.13
2022-08-29T16:15:54.896Z,3.55
2022-08-29T16:18:22.083Z,3.67
2022-08-29T16:20:49.084Z,5.28
2022-08-29T16:23:16.963Z,3.33
2022-08-29T16:25:44.905Z,5.63
2022-08-29T16:28:11.963Z,3.90
2022-08-29T16:30:44.152Z,5.40
2022-08-29T16:33:13.194Z,2.92
2022-08-29T16:35:39.889Z,4.45
2022-08-29T16:38:06.603Z,2.80
2022-08-29T16:40:33.582Z,3.95
2022-08-29T16:43:02.224Z,4.15
2022-08-29T16:45:29.728Z,2.83
2022-08-29T16:47:57.733Z,2.95
2022-08-29T16:50:24.895Z,3.60
2022-08-29T16:52:51.733Z,3.97
2022-08-29T16:55:18.792Z,4.32
2022-08-29T16:58:06.083Z,5.18
2022-08-29T17:00:33.732Z,3.05
2022-08-29T17:03:00.864Z,5.18
2022-08-29T17:05:27.757Z,3.08
2022-08-29T17:07:54.532Z,7.00
2022-08-29T17:10:21.330Z,2.30
2022-08-29T17:12:48.072Z,3.60
2022-08-29T17:15:14.910Z,5.85
2022-08-29T17:17:41.800Z,2.90
2022-08-29T17:20:11.520Z,2.53
2022-08-29T17:22:39.172Z,3.33
2022-08-29T17:25:06.444Z,3.38
2022-08-29T17:27:33.359Z,4.63
2022-08-29T17:30:00.222Z,2.67
2022-08-29T17:32:26.993Z,3.15
2022-08-29T17:34:53.757Z,3.28
2022-08-29T17:37:20.469Z,5.18
2022-08-29T17:39:47.430Z,3.28
2022-08-29T17:42:14.336Z,4.20
2022-08-29T17:44:41.346Z,2.65
2022-08-29T17:47:08.054Z,3.60
2022-08-29T17:49:34.912Z,3.17
2022-08-29T17:52:02.266Z,4.47
2022-08-29T17:54:28.954Z,4.10
2022-08-29T17:56:59.124Z,5.45
2022-08-29T17:59:28.795Z,4.32
2022-08-29T18:01:56.916Z,3.35
2022-08-29T18:04:24.293Z,2.88
2022-08-29T18:06:51.990Z,5.35
2022-08-29T18:09:19.539Z,4.50
2022-08-29T18:11:49.501Z,5.43
2022-08-29T18:14:17.995Z,4.53
2022-08-29T18:16:44.963Z,5.03
2022-08-29T18:19:13.465Z,4.40
2022-08-29T18:21:41.435Z,2.75
2022-08-29T18:24:13.818Z,4.65
2022-08-29T18:26:46.111Z,3.88
2022-08-29T18:29:13.405Z,3.50
2022-08-29T18:31:41.720Z,4.82
2022-08-29T18:34:11.092Z,3.42
2022-08-29T18:36:41.199Z,2.55
2022-08-29T18:39:11.726Z,3.13
2022-08-29T18:41:39.002Z,4.10
2022-08-29T18:44:06.212Z,3.38
2022-08-29T18:46:33.453Z,3.00
2022-08-29T18:49:00.478Z,2.92
2022-08-29T18:51:27.734Z,4.00
2022-08-29T18:53:54.895Z,3.88
2022-08-29T18:56:21.593Z,3.03
2022-08-29T18:58:48.373Z,3.42
2022-08-29T19:01:28.045Z,2.42
2022-08-29T19:03:57.732Z,3.20
2022-08-29T19:06:27.328Z,3.08
2022-08-29T19:08:56.497Z,4.43
2022-08-29T19:11:26.139Z,2.97
2022-08-29T19:13:53.989Z,3.60
2022-08-29T19:16:25.196Z,5.13
2022-08-29T19:18:52.613Z,3.92
2022-08-29T19:21:19.694Z,2.35
2022-08-29T19:23:52.045Z,3.00
2022-08-29T19:26:28.569Z,4.53
2022-08-29T19:28:59.814Z,4.85
2022-08-29T19:31:27.760Z,4.45
2022-08-29T19:33:55.182Z,2.78
2022-08-29T19:36:23.283Z,3.40
2022-08-29T19:38:50.362Z,4.65
2022-08-29T19:41:17.755Z,3.30
2022-08-29T19:43:45.392Z,3.03
2022-08-29T19:46:19.962Z,2.95
2022-08-29T19:48:51.259Z,3.47
2022-08-29T19:51:21.148Z,4.07
2022-08-29T19:53:48.554Z,3.85
2022-08-29T19:56:16.893Z,2.35
2022-08-29T19:58:44.167Z,4.28
2022-08-29T20:01:11.247Z,3.65
2022-08-29T20:03:40.098Z,2.40
2022-08-29T20:06:08.010Z,4.18
2022-08-29T20:08:36.398Z,3.35
2022-08-29T20:11:04.364Z,3.83
2022-08-29T20:13:35.739Z,2.88
2022-08-29T20:16:09.235Z,2.67
2022-08-29T20:18:36.286Z,4.00
2022-08-29T20:21:03.075Z,3.72
2022-08-29T20:23:31.575Z,5.57
2022-08-29T20:26:01.558Z,4.20
2022-08-29T20:28:30.592Z,3.67
2022-08-29T20:30:57.787Z,2.20
2022-08-29T20:33:25.500Z,2.00
2022-08-29T20:36:11.793Z,3.58
2022-08-29T20:38:38.578Z,2.00
2022-08-29T20:41:05.543Z,3.78
2022-08-29T20:43:32.350Z,4.30
2022-08-29T20:45:59.974Z,2.78
2022-08-29T20:48:31.446Z,2.20
2022-08-29T20:51:04.835Z,4.07
2022-08-29T20:53:33.076Z,4.43
2022-08-29T20:56:01.286Z,1.98
2022-08-29T20:58:29.454Z,2.58
2022-08-29T21:00:58.190Z,2.50
2022-08-29T21:03:44.043Z,2.03
2022-08-29T21:06:12.013Z,2.10
2022-08-29T21:08:40.952Z,3.45
2022-08-29T21:11:07.960Z,3.17
2022-08-29T21:13:34.726Z,2.25
2022-08-29T21:16:04.634Z,2.28
2022-08-29T21:18:31.630Z,3.17
2022-08-29T21:20:58.389Z,2.03
2022-08-29T21:23:25.667Z,2.47
2022-08-29T21:25:54.942Z,3.70
2022-08-29T21:28:22.750Z,3.00
2022-08-29T21:30:49.603Z,2.05
2022-08-29T21:33:16.855Z,5.85
2022-08-29T21:35:44.212Z,2.55
2022-08-29T21:38:11.230Z,2.95
2022-08-29T21:40:50.086Z,2.63
2022-08-29T21:43:21.317Z,2.80
2022-08-29T21:45:48.733Z,3.42
2022-08-29T21:48:16.127Z,3.88
2022-08-29T21:50:43.213Z,3.55
2022-08-29T21:53:14.888Z,3.15
2022-08-29T21:55:42.066Z,2.75
2022-08-29T21:58:09.322Z,2.90
2022-08-29T22:00:37.175Z,2.50
2022-08-29T22:03:06.423Z,3.17
2022-08-29T22:05:33.701Z,2.90
2022-08-29T22:08:03.152Z,3.42
2022-08-29T22:10:34.054Z,5.78
2022-08-29T22:13:02.136Z,2.53
2022-08-29T22:15:47.946Z,2.35
2022-08-29T22:18:15.261Z,3.08
2022-08-29T22:20:43.835Z,2.30
2022-08-29T22:23:11.121Z,2.85
2022-08-29T22:25:38.385Z,2.63
2022-08-29T22:28:05.901Z,5.28
2022-08-29T22:30:33.287Z,3.20
2022-08-29T22:33:01.288Z,3.85
2022-08-29T22:35:28.904Z,3.92
2022-08-29T22:37:55.785Z,5.65
2022-08-29T22:40:23.530Z,3.05
2022-08-29T22:42:50.506Z,3.40
2022-08-29T22:45:18.559Z,3.15
2022-08-29T22:47:46.744Z,3.05
2022-08-29T22:50:17.684Z,2.55
2022-08-29T22:52:45.365Z,3.33
2022-08-29T22:55:14.775Z,2.88
2022-08-29T22:57:45.384Z,4.05
2022-08-29T23:00:17.054Z,2.95
2022-08-29T23:02:43.859Z,2.42
2022-08-29T23:05:10.884Z,4.03
2022-08-29T23:07:38.189Z,2.38
2022-08-29T23:10:07.571Z,2.45
2022-08-29T23:12:36.159Z,2.50
2022-08-29T23:15:14.568Z,3.35
2022-08-29T23:17:41.740Z,2.67
2022-08-29T23:20:11.502Z,3.67
2022-08-29T23:22:39.212Z,2.63
2022-08-29T23:27:36.986Z,3.60
2022-08-29T23:30:05.856Z,4.88
2022-08-29T23:32:32.642Z,4.50
2022-08-29T23:34:59.439Z,3.65
2022-08-29T23:37:26.269Z,8.27
2022-08-29T23:39:53.434Z,2.70
2022-08-29T23:42:20.607Z,3.55
2022-08-29T23:44:48.385Z,2.83
2022-08-29T23:47:16.245Z,1.55
2022-08-29T23:49:43.432Z,1.73
2022-08-29T23:52:10.470Z,2.80
2022-08-29T23:54:37.349Z,2.75
2022-08-29T23:57:04.647Z,3.92
2022-08-29T23:59:52.044Z,2.45
